BEG airport status
LYBE 071200Z 14011KT CAVOK 13/M01 Q1020 NOSIG